| Date | Time | Temp. (oF) | Dew Point (oF) | Rel. Hum. (%) | Press. (in.) | Wind Dir. | Wind Speed (mph) | Hourly Rainfall (in.) |
|
|---|---|---|---|---|---|---|---|---|---|
| 1 | 07/19 | 00:00 | 80 | 77 | 92 | 29.97 | SW | 0 | 0.00 |
| 2 | 07/18 | 23:00 | 81 | 78 | 92 | 29.97 | SSW | 2 | 0.00 |
| 3 | 07/18 | 22:00 | 82 | 78 | 89 | 29.98 | SSW | 1 | 0.00 |
| 4 | 07/18 | 21:00 | 84 | 78 | 85 | 29.95 | SW | 2 | 0.00 |
| 5 | 07/18 | 20:00 | 84 | 79 | 86 | 29.92 | S | 2 | 0.00 |
| 6 | 07/18 | 19:00 | 88 | 79 | 77 | 29.93 | SSE | 1 | 0.00 |
| 7 | 07/18 | 18:00 | 89 | 77 | 69 | 29.92 | WNW | 5 | 0.00 |
| 8 | 07/18 | 17:00 | 89 | 77 | 70 | 29.94 | WNW | 3 | 0.00 |
| 9 | 07/18 | 16:00 | 90 | 77 | 66 | 29.94 | SSW | 3 | 0.00 |
| 10 | 07/18 | 15:00 | 90 | 78 | 69 | 29.96 | WSW | 6 | 0.00 |
| 11 | 07/18 | 14:00 | 89 | 77 | 70 | 29.98 | SSW | 6 | 0.00 |
| 12 | 07/18 | 13:00 | 87 | 77 | 74 | 29.99 | W | 6 | 0.00 |
| 13 | 07/18 | 12:00 | 87 | 78 | 75 | 30.01 | WNW | 4 | 0.00 |
| 14 | 07/18 | 11:00 | 86 | 78 | 79 | 30.02 | W | 7 | 0.00 |
| 15 | 07/18 | 10:00 | 83 | 77 | 84 | 30.02 | NNW | 5 | 0.00 |
| 16 | 07/18 | 09:00 | 80 | 80 | 100 | 30.03 | WSW | 5 | 0.00 |
| 17 | 07/18 | 08:00 | 77 | 77 | 100 | 30.03 | NNW | 3 | 0.00 |
| 18 | 07/18 | 07:00 | 75 | 75 | 100 | 30.02 | W | 0 | 0.00 |
| 19 | 07/18 | 06:00 | 75 | 75 | 100 | 30.00 | SW | 0 | 0.00 |
| 20 | 07/18 | 05:00 | 75 | 75 | 100 | 29.99 | ESE | 0 | 0.00 |
| 21 | 07/18 | 04:00 | 75 | 75 | 100 | 29.99 | S | 0 | 0.00 |
| 22 | 07/18 | 03:00 | 76 | 76 | 100 | 30.00 | S | 0 | 0.00 |
| 23 | 07/18 | 02:00 | 77 | 76 | 98 | 29.99 | S | 0 | 0.00 |
| 24 | 07/18 | 01:00 | 78 | 77 | 97 | 29.99 | SSW | 0 | 0.00 |